createdAt,value
2023-02-22T00:00:45.852Z,0
2023-02-22T00:01:46.091Z,0
2023-02-22T00:02:48.984Z,0
2023-02-22T00:03:45.882Z,0
2023-02-22T00:04:45.816Z,0
2023-02-22T00:05:45.795Z,0
2023-02-22T00:06:45.767Z,0
2023-02-22T00:07:48.597Z,0
2023-02-22T00:08:45.774Z,0
2023-02-22T00:09:45.872Z,0
2023-02-22T00:10:45.795Z,0
2023-02-22T00:11:45.818Z,0
2023-02-22T00:12:45.791Z,0
2023-02-22T00:13:48.583Z,0
2023-02-22T00:14:45.829Z,0
2023-02-22T00:15:45.814Z,0
2023-02-22T00:16:46.144Z,0
2023-02-22T00:17:45.826Z,0
2023-02-22T00:18:49.914Z,0
2023-02-22T00:19:45.841Z,0
2023-02-22T00:20:45.809Z,0
2023-02-22T00:21:45.822Z,0
2023-02-22T00:22:45.797Z,0
2023-02-22T00:23:45.836Z,0
2023-02-22T00:24:45.826Z,0
2023-02-22T00:25:45.807Z,0
2023-02-22T00:26:45.873Z,0
2023-02-22T00:27:45.887Z,0
2023-02-22T00:28:45.860Z,0
2023-02-22T00:29:48.927Z,0
2023-02-22T00:30:46.257Z,0
2023-02-22T00:31:49.350Z,0
2023-02-22T00:32:46.108Z,0
2023-02-22T00:33:45.953Z,0
2023-02-22T00:34:45.910Z,0
2023-02-22T00:35:45.911Z,0
2023-02-22T00:36:45.825Z,0
2023-02-22T00:37:45.848Z,0
2023-02-22T00:38:46.934Z,0
2023-02-22T00:39:45.956Z,0
2023-02-22T00:40:48.860Z,0
2023-02-22T00:41:46.340Z,0
2023-02-22T00:42:45.848Z,0
2023-02-22T00:43:45.950Z,0
2023-02-22T00:44:45.856Z,0
2023-02-22T00:45:48.976Z,0
2023-02-22T00:46:46.910Z,0
2023-02-22T00:47:45.987Z,0
2023-02-22T00:48:45.876Z,0
2023-02-22T00:49:45.904Z,0
2023-02-22T00:50:45.877Z,0
2023-02-22T00:51:45.866Z,0
2023-02-22T00:52:45.844Z,0
2023-02-22T00:53:45.882Z,0
2023-02-22T00:54:45.886Z,0
2023-02-22T00:55:45.924Z,0
2023-02-22T00:56:48.622Z,0
2023-02-22T00:57:45.890Z,0
2023-02-22T00:58:45.860Z,0
2023-02-22T00:59:45.894Z,0
2023-02-22T01:00:45.969Z,0
2023-02-22T01:01:48.939Z,0
2023-02-22T01:02:49.760Z,0
2023-02-22T01:03:46.228Z,0
2023-02-22T01:04:46.310Z,0
2023-02-22T01:05:46.198Z,0
2023-02-22T01:06:45.883Z,0
2023-02-22T01:07:49.021Z,0
2023-02-22T01:08:45.873Z,0
2023-02-22T01:09:45.912Z,0
2023-02-22T01:10:45.909Z,0
2023-02-22T01:11:45.879Z,0
2023-02-22T01:12:49.737Z,0
2023-02-22T01:13:45.866Z,0
2023-02-22T01:14:45.944Z,0
2023-02-22T01:15:45.973Z,0
2023-02-22T01:16:46.256Z,0
2023-02-22T01:17:45.877Z,0
2023-02-22T01:18:49.088Z,0
2023-02-22T01:19:45.923Z,0
2023-02-22T01:20:45.925Z,0
2023-02-22T01:21:45.937Z,0
2023-02-22T01:22:45.938Z,0
2023-02-22T01:23:48.921Z,0
2023-02-22T01:24:45.903Z,0
2023-02-22T01:25:46.944Z,0
2023-02-22T01:26:45.911Z,0
2023-02-22T01:27:45.918Z,0
2023-02-22T01:28:45.904Z,0
2023-02-22T01:29:47.534Z,0
2023-02-22T01:30:46.811Z,0
2023-02-22T01:31:46.293Z,0
2023-02-22T01:32:45.921Z,0
2023-02-22T01:33:46.166Z,0
2023-02-22T01:34:49.002Z,0
2023-02-22T01:35:45.926Z,0
2023-02-22T01:36:45.931Z,0
2023-02-22T01:37:45.952Z,0
2023-02-22T01:38:46.015Z,0
2023-02-22T01:39:45.976Z,0
2023-02-22T01:40:48.745Z,0
2023-02-22T01:41:46.011Z,0
2023-02-22T01:42:45.932Z,0
2023-02-22T01:43:45.950Z,0
2023-02-22T01:44:45.922Z,0
2023-02-22T01:45:48.962Z,0
2023-02-22T01:46:45.933Z,0
2023-02-22T01:47:45.975Z,0
2023-02-22T01:48:45.996Z,0
2023-02-22T01:49:45.924Z,0
2023-02-22T01:50:45.998Z,0
2023-02-22T01:51:46.119Z,0
2023-02-22T01:52:45.960Z,0
2023-02-22T01:53:45.987Z,0
2023-02-22T01:54:45.972Z,0
2023-02-22T01:55:45.963Z,0
2023-02-22T01:56:49.115Z,0
2023-02-22T01:57:45.947Z,0
2023-02-22T01:58:45.955Z,0
2023-02-22T01:59:45.942Z,0
2023-02-22T02:00:46.005Z,0
2023-02-22T02:01:45.969Z,0
2023-02-22T02:02:48.972Z,0
2023-02-22T02:03:46.169Z,0
2023-02-22T02:04:46.118Z,0
2023-02-22T02:05:45.995Z,0
2023-02-22T02:06:47.023Z,0
2023-02-22T02:07:48.849Z,0
2023-02-22T02:08:46.122Z,0
2023-02-22T02:09:45.982Z,0
2023-02-22T02:10:46.028Z,0
2023-02-22T02:11:45.967Z,0
2023-02-22T02:12:46.022Z,0
2023-02-22T02:13:48.778Z,0
2023-02-22T02:14:45.998Z,0
2023-02-22T02:15:46.025Z,0
2023-02-22T02:16:46.291Z,0
2023-02-22T02:17:45.968Z,0
2023-02-22T02:18:48.753Z,0
2023-02-22T02:19:48.776Z,0
2023-02-22T02:20:46.028Z,0
2023-02-22T02:21:46.196Z,0
2023-02-22T02:22:46.074Z,0
2023-02-22T02:23:45.990Z,0
2023-02-22T02:24:49.113Z,0
2023-02-22T02:25:46.052Z,0
2023-02-22T02:26:46.049Z,0
2023-02-22T02:27:45.990Z,0
2023-02-22T02:28:46.003Z,0
2023-02-22T02:29:49.043Z,0
2023-02-22T02:30:46.194Z,0
2023-02-22T02:31:46.702Z,0
2023-02-22T02:32:46.439Z,0
2023-02-22T02:33:46.051Z,0
2023-02-22T02:34:49.019Z,0
2023-02-22T02:35:46.089Z,0
2023-02-22T02:36:46.055Z,0
2023-02-22T02:37:46.008Z,0
2023-02-22T02:38:46.246Z,0
2023-02-22T02:39:46.047Z,0
2023-02-22T02:40:48.986Z,0
2023-02-22T02:41:46.053Z,0
2023-02-22T02:42:46.064Z,0
2023-02-22T02:43:46.030Z,0
2023-02-22T02:44:46.000Z,0
2023-02-22T02:45:47.450Z,0
2023-02-22T02:46:46.203Z,0
2023-02-22T02:47:46.043Z,0
2023-02-22T02:48:46.081Z,0
2023-02-22T02:49:46.024Z,0
2023-02-22T02:50:46.059Z,0
2023-02-22T02:51:46.151Z,0
2023-02-22T02:52:46.073Z,0
2023-02-22T02:53:46.132Z,0
2023-02-22T02:54:45.935Z,0
2023-02-22T02:55:46.135Z,0
2023-02-22T02:56:48.864Z,0
2023-02-22T02:57:46.077Z,0
2023-02-22T02:58:46.067Z,0
2023-02-22T02:59:46.119Z,0
2023-02-22T03:00:46.259Z,0
2023-02-22T03:01:46.308Z,0
2023-02-22T03:02:46.056Z,0
2023-02-22T03:03:46.093Z,0
2023-02-22T03:04:46.046Z,0
2023-02-22T03:05:46.086Z,0
2023-02-22T03:06:46.058Z,0
2023-02-22T03:07:49.573Z,0
2023-02-22T03:08:46.074Z,0
2023-02-22T03:09:46.094Z,0
2023-02-22T03:10:46.224Z,0
2023-02-22T03:11:46.097Z,0
2023-02-22T03:12:49.220Z,0
2023-02-22T03:13:46.219Z,0
2023-02-22T03:14:46.098Z,0
2023-02-22T03:15:46.456Z,0
2023-02-22T03:16:46.539Z,0
2023-02-22T03:17:46.155Z,0
2023-02-22T03:18:49.070Z,0
2023-02-22T03:19:46.082Z,0
2023-02-22T03:20:46.098Z,0
2023-02-22T03:21:46.118Z,0
2023-02-22T03:22:46.122Z,0
2023-02-22T03:23:49.250Z,0
2023-02-22T03:24:46.089Z,0
2023-02-22T03:25:46.131Z,0
2023-02-22T03:26:46.233Z,0
2023-02-22T03:27:46.205Z,0
2023-02-22T03:28:52.366Z,0
2023-02-22T03:29:46.118Z,0
2023-02-22T03:30:46.534Z,0
2023-02-22T03:31:46.208Z,0
2023-02-22T03:32:46.165Z,0
2023-02-22T03:33:48.320Z,0
2023-02-22T03:34:48.917Z,0
2023-02-22T03:35:46.141Z,0
2023-02-22T03:36:46.142Z,0
2023-02-22T03:37:46.122Z,0
2023-02-22T03:38:46.271Z,0
2023-02-22T03:39:49.066Z,0
2023-02-22T03:40:46.152Z,0
2023-02-22T03:41:46.141Z,0
2023-02-22T03:42:46.188Z,0
2023-02-22T03:43:46.134Z,0
2023-02-22T03:44:46.145Z,0
2023-02-22T03:45:49.227Z,0
2023-02-22T03:46:46.341Z,0
2023-02-22T03:47:46.205Z,0
2023-02-22T03:48:47.147Z,0
2023-02-22T03:49:46.157Z,0
2023-02-22T03:50:49.174Z,0
2023-02-22T03:51:46.138Z,0
2023-02-22T03:52:46.154Z,0
2023-02-22T03:53:46.145Z,0
2023-02-22T03:54:46.158Z,0
2023-02-22T03:55:46.221Z,0
2023-02-22T03:56:48.997Z,0
2023-02-22T03:57:46.139Z,0
2023-02-22T03:58:46.363Z,0
2023-02-22T03:59:46.148Z,0
2023-02-22T04:00:46.193Z,0
2023-02-22T04:01:48.988Z,0
2023-02-22T04:02:46.526Z,0
2023-02-22T04:03:46.150Z,0
2023-02-22T04:04:46.588Z,0
2023-02-22T04:05:46.207Z,0
2023-02-22T04:06:46.184Z,0
2023-02-22T04:07:49.323Z,0
2023-02-22T04:08:46.167Z,0
2023-02-22T04:09:46.173Z,0
2023-02-22T04:10:46.167Z,0
2023-02-22T04:11:46.214Z,0
2023-02-22T04:12:49.318Z,0
2023-02-22T04:13:46.158Z,0
2023-02-22T04:14:46.402Z,0
2023-02-22T04:15:46.546Z,0
2023-02-22T04:16:46.219Z,0
2023-02-22T04:17:46.191Z,0
2023-02-22T04:18:46.371Z,0
2023-02-22T04:19:46.200Z,0
2023-02-22T04:20:46.196Z,0
2023-02-22T04:21:46.174Z,0
2023-02-22T04:22:46.259Z,0
2023-02-22T04:23:49.121Z,0
2023-02-22T04:24:47.254Z,0
2023-02-22T04:25:46.191Z,0
2023-02-22T04:26:46.201Z,0
2023-02-22T04:27:46.268Z,0
2023-02-22T04:28:46.188Z,0
2023-02-22T04:29:49.372Z,0
2023-02-22T04:30:46.572Z,0
2023-02-22T04:31:46.599Z,0
2023-02-22T04:32:46.238Z,0
2023-02-22T04:33:46.210Z,0
2023-02-22T04:34:49.089Z,0
2023-02-22T04:35:46.233Z,0
2023-02-22T04:36:46.317Z,0
2023-02-22T04:37:46.211Z,0
2023-02-22T04:38:46.215Z,0
2023-02-22T04:39:46.601Z,0
2023-02-22T04:40:49.028Z,0
2023-02-22T04:41:46.221Z,0
2023-02-22T04:42:46.192Z,0
2023-02-22T04:43:46.253Z,0
2023-02-22T04:44:46.232Z,0
2023-02-22T04:45:49.475Z,0
2023-02-22T04:46:46.841Z,0
2023-02-22T04:47:46.338Z,0
2023-02-22T04:48:46.260Z,0
2023-02-22T04:49:48.187Z,0
2023-02-22T04:50:46.284Z,0
2023-02-22T04:51:49.334Z,0
2023-02-22T04:52:46.262Z,0
2023-02-22T04:53:46.285Z,0
2023-02-22T04:54:46.301Z,0
2023-02-22T04:55:46.250Z,0
2023-02-22T04:56:49.071Z,0
2023-02-22T04:57:46.260Z,0
2023-02-22T04:58:46.225Z,0
2023-02-22T04:59:46.248Z,0
2023-02-22T05:00:46.610Z,0
2023-02-22T05:01:49.245Z,0
2023-02-22T05:02:46.486Z,0
2023-02-22T05:03:46.265Z,0
2023-02-22T05:04:46.552Z,0
2023-02-22T05:05:46.273Z,0
2023-02-22T05:06:46.337Z,0
2023-02-22T05:07:49.380Z,0
2023-02-22T05:08:46.261Z,0
2023-02-22T05:09:46.266Z,0
2023-02-22T05:10:46.254Z,0
2023-02-22T05:11:46.326Z,0
2023-02-22T05:12:49.338Z,0
2023-02-22T05:13:46.257Z,0
2023-02-22T05:14:46.275Z,0
2023-02-22T05:15:46.469Z,0
2023-02-22T05:16:46.278Z,0
2023-02-22T05:17:46.314Z,0
2023-02-22T05:18:46.361Z,0
2023-02-22T05:19:46.318Z,0
2023-02-22T05:20:46.320Z,0
2023-02-22T05:21:46.276Z,0
2023-02-22T05:22:46.312Z,0
2023-02-22T05:23:49.128Z,0
2023-02-22T05:24:46.282Z,0
2023-02-22T05:25:46.308Z,0
2023-02-22T05:26:46.487Z,0
2023-02-22T05:27:46.260Z,0
2023-02-22T05:28:46.292Z,0
2023-02-22T05:29:46.284Z,0
2023-02-22T05:30:46.972Z,0
2023-02-22T05:31:47.124Z,0
2023-02-22T05:32:49.238Z,0
2023-02-22T05:33:46.422Z,0
2023-02-22T05:34:49.293Z,0
2023-02-22T05:35:46.344Z,0
2023-02-22T05:36:46.352Z,0
2023-02-22T05:37:47.304Z,0
2023-02-22T05:38:46.411Z,0
2023-02-22T05:39:49.091Z,0
2023-02-22T05:40:46.524Z,0
2023-02-22T05:41:46.336Z,0
2023-02-22T05:42:48.184Z,0
2023-02-22T05:43:46.204Z,0
2023-02-22T05:44:46.337Z,0
2023-02-22T05:45:49.341Z,0
2023-02-22T05:46:46.765Z,0
2023-02-22T05:47:46.356Z,0
2023-02-22T05:48:46.330Z,0
2023-02-22T05:49:46.444Z,0
2023-02-22T05:50:49.351Z,0
2023-02-22T05:51:46.350Z,0
2023-02-22T05:52:46.384Z,0
2023-02-22T05:53:46.448Z,0
2023-02-22T05:54:46.344Z,0
2023-02-22T05:55:51.040Z,0
2023-02-22T05:56:46.373Z,0
2023-02-22T05:57:46.339Z,0
2023-02-22T05:58:46.322Z,0
2023-02-22T05:59:46.326Z,0
2023-02-22T06:00:46.401Z,0
2023-02-22T06:01:49.543Z,0
2023-02-22T06:02:46.380Z,0
2023-02-22T06:03:46.389Z,0
2023-02-22T06:04:46.358Z,0
2023-02-22T06:05:46.711Z,0
2023-02-22T06:06:49.515Z,0
2023-02-22T06:07:46.349Z,0
2023-02-22T06:08:46.373Z,0
2023-02-22T06:09:46.347Z,0
2023-02-22T06:10:46.440Z,0
2023-02-22T06:11:46.362Z,0
2023-02-22T06:12:48.979Z,0
2023-02-22T06:13:46.359Z,0
2023-02-22T06:14:46.354Z,0
2023-02-22T06:15:46.376Z,0
2023-02-22T06:16:46.463Z,0
2023-02-22T06:17:49.049Z,0
2023-02-22T06:18:46.373Z,0
2023-02-22T06:19:46.397Z,0
2023-02-22T06:20:46.443Z,0
2023-02-22T06:21:46.486Z,0
2023-02-22T06:22:46.393Z,0
2023-02-22T06:23:49.388Z,0
2023-02-22T06:24:46.425Z,0
2023-02-22T06:25:46.390Z,0
2023-02-22T06:26:46.411Z,0
2023-02-22T06:27:46.403Z,0
2023-02-22T06:28:49.444Z,0
2023-02-22T06:29:46.421Z,0
2023-02-22T06:30:46.751Z,0
2023-02-22T06:31:46.966Z,0
2023-02-22T06:32:46.426Z,0
2023-02-22T06:33:46.462Z,0
2023-02-22T06:34:49.206Z,0
2023-02-22T06:35:46.479Z,0
2023-02-22T06:36:46.404Z,0
2023-02-22T06:37:46.469Z,0
2023-02-22T06:38:46.273Z,0
2023-02-22T06:39:49.452Z,0
2023-02-22T06:40:46.432Z,0
2023-02-22T06:41:46.447Z,0
2023-02-22T06:42:46.425Z,0
2023-02-22T06:43:46.423Z,5
2023-02-22T06:44:46.267Z,5
2023-02-22T06:45:49.478Z,5
2023-02-22T06:46:46.487Z,5
2023-02-22T06:47:46.603Z,5
2023-02-22T06:48:46.402Z,5
2023-02-22T06:49:46.390Z,5
2023-02-22T06:50:49.333Z,5
2023-02-22T06:51:46.565Z,5
2023-02-22T06:52:47.448Z,5
2023-02-22T06:53:46.462Z,5
2023-02-22T06:54:46.450Z,5
2023-02-22T06:55:46.566Z,5
2023-02-22T06:56:49.497Z,10
2023-02-22T06:57:46.468Z,10
2023-02-22T06:58:46.463Z,10
2023-02-22T06:59:46.422Z,15
2023-02-22T07:00:46.635Z,10
2023-02-22T07:01:50.751Z,10
2023-02-22T07:02:46.467Z,10
2023-02-22T07:03:46.848Z,15
2023-02-22T07:04:49.702Z,15
2023-02-22T07:05:46.494Z,15
2023-02-22T07:06:46.467Z,10
2023-02-22T07:07:49.590Z,15
2023-02-22T07:08:46.432Z,15
2023-02-22T07:09:47.952Z,15
2023-02-22T07:10:46.444Z,20
2023-02-22T07:11:46.486Z,20
2023-02-22T07:12:49.481Z,20
2023-02-22T07:13:46.455Z,15
2023-02-22T07:14:46.463Z,15
2023-02-22T07:15:46.481Z,10
2023-02-22T07:16:46.631Z,10
2023-02-22T07:17:46.481Z,10
2023-02-22T07:18:49.508Z,10
2023-02-22T07:19:46.508Z,15
2023-02-22T07:20:46.444Z,10
2023-02-22T07:21:46.484Z,10
2023-02-22T07:22:46.520Z,10
2023-02-22T07:23:49.380Z,15
2023-02-22T07:24:46.467Z,15
2023-02-22T07:25:46.485Z,15
2023-02-22T07:26:46.485Z,15
2023-02-22T07:27:46.497Z,20
2023-02-22T07:28:49.234Z,20
2023-02-22T07:29:46.476Z,20
2023-02-22T07:30:46.810Z,20
2023-02-22T07:31:47.402Z,20
2023-02-22T07:32:47.336Z,20
2023-02-22T07:33:46.484Z,25
2023-02-22T07:34:49.712Z,20
2023-02-22T07:35:46.504Z,20
2023-02-22T07:36:46.491Z,20
2023-02-22T07:37:46.510Z,20
2023-02-22T07:38:46.503Z,20
2023-02-22T07:39:49.328Z,25
2023-02-22T07:40:46.527Z,25
2023-02-22T07:41:46.570Z,25
2023-02-22T07:42:46.512Z,25
2023-02-22T07:43:46.481Z,20
2023-02-22T07:44:46.345Z,20
2023-02-22T07:45:46.791Z,20
2023-02-22T07:46:46.533Z,20
2023-02-22T07:47:46.502Z,25
2023-02-22T07:48:46.528Z,25
2023-02-22T07:49:46.488Z,25
2023-02-22T07:50:49.649Z,25
2023-02-22T07:51:46.967Z,25
2023-02-22T07:52:46.551Z,25
2023-02-22T07:53:46.475Z,25
2023-02-22T07:54:46.539Z,30
2023-02-22T07:55:46.544Z,25
2023-02-22T07:56:46.551Z,25
2023-02-22T07:57:46.578Z,25
2023-02-22T07:58:46.504Z,25
2023-02-22T07:59:46.483Z,25
2023-02-22T08:00:46.649Z,25
2023-02-22T08:01:49.667Z,30
2023-02-22T08:02:46.934Z,35
2023-02-22T08:03:46.665Z,35
2023-02-22T08:04:46.534Z,30
2023-02-22T08:05:47.542Z,35
2023-02-22T08:06:49.436Z,45
2023-02-22T08:07:46.572Z,45
2023-02-22T08:08:46.644Z,45
2023-02-22T08:09:46.549Z,45
2023-02-22T08:10:46.527Z,45
2023-02-22T08:11:46.598Z,50
2023-02-22T08:12:46.704Z,50
2023-02-22T08:13:46.518Z,50
2023-02-22T08:14:46.398Z,50
2023-02-22T08:15:46.628Z,45
2023-02-22T08:16:46.940Z,35
2023-02-22T08:17:49.463Z,35
2023-02-22T08:18:46.574Z,45
2023-02-22T08:19:46.556Z,45
2023-02-22T08:20:46.627Z,45
2023-02-22T08:21:46.647Z,45
2023-02-22T08:22:49.416Z,45
2023-02-22T08:23:46.583Z,45
2023-02-22T08:24:46.569Z,45
2023-02-22T08:25:46.556Z,45
2023-02-22T08:26:46.598Z,40
2023-02-22T08:27:46.874Z,40
2023-02-22T08:28:49.408Z,40
2023-02-22T08:29:46.563Z,40
2023-02-22T08:30:49.689Z,40
2023-02-22T08:31:46.847Z,40
2023-02-22T08:32:47.315Z,40
2023-02-22T08:33:49.614Z,40
2023-02-22T08:34:46.574Z,35
2023-02-22T08:35:46.567Z,40
2023-02-22T08:36:47.594Z,40
2023-02-22T08:37:46.599Z,40
2023-02-22T08:38:46.618Z,50
2023-02-22T08:39:49.462Z,35
2023-02-22T08:40:46.627Z,30
2023-02-22T08:41:46.618Z,35
2023-02-22T08:42:46.651Z,50
2023-02-22T08:43:46.643Z,50
2023-02-22T08:44:49.655Z,55
2023-02-22T08:45:46.854Z,60
2023-02-22T08:46:46.552Z,55
2023-02-22T08:47:46.477Z,60
2023-02-22T08:48:46.666Z,65
2023-02-22T08:49:46.613Z,55
2023-02-22T08:50:49.693Z,55
2023-02-22T08:51:46.586Z,70
2023-02-22T08:52:46.666Z,70
2023-02-22T08:53:46.584Z,75
2023-02-22T08:54:46.955Z,60
2023-02-22T08:55:49.938Z,75
2023-02-22T08:56:46.615Z,70
2023-02-22T08:57:46.625Z,70
2023-02-22T08:58:46.655Z,70
2023-02-22T08:59:46.608Z,75
2023-02-22T09:00:46.692Z,75
2023-02-22T09:01:50.502Z,75
2023-02-22T09:02:47.066Z,50
2023-02-22T09:03:46.737Z,70
2023-02-22T09:04:46.638Z,40
2023-02-22T09:05:47.039Z,40
2023-02-22T09:06:49.710Z,80
2023-02-22T09:07:46.878Z,70
2023-02-22T09:08:46.590Z,75
2023-02-22T09:09:46.652Z,80
2023-02-22T09:10:46.683Z,75
2023-02-22T09:11:46.709Z,75
2023-02-22T09:12:49.494Z,75
2023-02-22T09:13:49.410Z,75
2023-02-22T09:14:46.637Z,40
2023-02-22T09:15:46.729Z,50
2023-02-22T09:16:46.972Z,55
2023-02-22T09:17:49.435Z,55
2023-02-22T09:18:56.287Z,65
2023-02-22T09:19:46.638Z,55
2023-02-22T09:20:46.950Z,60
2023-02-22T09:21:46.784Z,60
2023-02-22T09:22:46.692Z,65
2023-02-22T09:23:49.931Z,65
2023-02-22T09:24:46.648Z,55
2023-02-22T09:25:46.658Z,60
2023-02-22T09:26:46.643Z,60
2023-02-22T09:27:46.669Z,50
2023-02-22T09:28:49.415Z,40
2023-02-22T09:29:46.630Z,45
2023-02-22T09:30:47.151Z,45
2023-02-22T09:31:47.394Z,50
2023-02-22T09:32:47.978Z,60
2023-02-22T09:33:49.618Z,65
2023-02-22T09:34:49.646Z,65
2023-02-22T09:35:46.915Z,60
2023-02-22T09:36:46.735Z,55
2023-02-22T09:37:46.740Z,50
2023-02-22T09:38:46.673Z,50
2023-02-22T09:39:50.330Z,55
2023-02-22T09:40:46.650Z,60
2023-02-22T09:41:46.656Z,60
2023-02-22T09:42:46.706Z,65
2023-02-22T09:43:47.726Z,50
2023-02-22T09:44:46.745Z,45
2023-02-22T09:45:49.634Z,55
2023-02-22T09:46:46.737Z,55
2023-02-22T09:47:46.920Z,50
2023-02-22T09:48:46.821Z,70
2023-02-22T09:49:46.769Z,60
2023-02-22T09:50:49.696Z,50
2023-02-22T09:51:46.698Z,50
2023-02-22T09:52:46.753Z,45
2023-02-22T09:53:46.910Z,45
2023-02-22T09:54:46.702Z,55
2023-02-22T09:55:49.801Z,55
2023-02-22T09:56:46.717Z,55
2023-02-22T09:57:46.742Z,60
2023-02-22T09:58:48.542Z,55
2023-02-22T09:59:46.719Z,45
2023-02-22T10:00:46.696Z,45
2023-02-22T10:01:49.499Z,55
2023-02-22T10:02:46.833Z,45
2023-02-22T10:03:47.044Z,50
2023-02-22T10:04:46.827Z,55
2023-02-22T10:05:47.130Z,50
2023-02-22T10:06:49.505Z,50
2023-02-22T10:07:46.723Z,50
2023-02-22T10:08:46.773Z,55
2023-02-22T10:09:46.792Z,55
2023-02-22T10:10:46.730Z,55
2023-02-22T10:11:46.763Z,60
2023-02-22T10:12:47.078Z,60
2023-02-22T10:13:46.750Z,60
2023-02-22T10:14:48.525Z,50
2023-02-22T10:15:46.600Z,55
2023-02-22T10:16:47.186Z,60
2023-02-22T10:17:49.609Z,55
2023-02-22T10:18:46.628Z,50
2023-02-22T10:19:46.754Z,50
2023-02-22T10:20:46.799Z,45
2023-02-22T10:21:46.709Z,45
2023-02-22T10:22:46.761Z,40
2023-02-22T10:23:46.811Z,45
2023-02-22T10:24:47.012Z,45
2023-02-22T10:25:46.765Z,45
2023-02-22T10:26:46.857Z,50
2023-02-22T10:27:46.815Z,45
2023-02-22T10:28:49.785Z,40
2023-02-22T10:29:46.873Z,40
2023-02-22T10:30:47.097Z,40
2023-02-22T10:31:47.055Z,50
2023-02-22T10:32:46.955Z,45
2023-02-22T10:33:49.827Z,50
2023-02-22T10:34:46.771Z,55
2023-02-22T10:35:49.219Z,60
2023-02-22T10:36:46.876Z,70
2023-02-22T10:37:46.962Z,70
2023-02-22T10:38:46.795Z,75
2023-02-22T10:39:49.893Z,70
2023-02-22T10:40:46.898Z,65
2023-02-22T10:41:46.845Z,60
2023-02-22T10:42:46.815Z,60
2023-02-22T10:43:46.838Z,60
2023-02-22T10:44:49.570Z,55
2023-02-22T10:45:47.154Z,45
2023-02-22T10:46:46.793Z,50
2023-02-22T10:47:47.122Z,60
2023-02-22T10:48:46.806Z,55
2023-02-22T10:49:49.774Z,45
2023-02-22T10:50:46.888Z,45
2023-02-22T10:51:46.823Z,55
2023-02-22T10:52:46.910Z,60
2023-02-22T10:53:46.813Z,55
2023-02-22T10:54:46.915Z,55
2023-02-22T10:55:49.885Z,50
2023-02-22T10:56:46.915Z,50
2023-02-22T10:57:46.935Z,50
2023-02-22T10:58:46.845Z,55
2023-02-22T10:59:46.849Z,55
2023-02-22T11:00:51.522Z,60
2023-02-22T11:01:47.273Z,60
2023-02-22T11:02:46.793Z,65
2023-02-22T11:03:46.833Z,70
2023-02-22T11:04:46.985Z,65
2023-02-22T11:05:46.854Z,75
2023-02-22T11:06:49.686Z,70
2023-02-22T11:07:46.858Z,70
2023-02-22T11:08:46.924Z,75
2023-02-22T11:09:46.857Z,75
2023-02-22T11:10:46.815Z,75
2023-02-22T11:11:49.698Z,70
2023-02-22T11:12:46.940Z,70
2023-02-22T11:13:46.961Z,70
2023-02-22T11:14:46.846Z,70
2023-02-22T11:15:46.869Z,70
2023-02-22T11:16:47.242Z,70
2023-02-22T11:17:50.667Z,65
2023-02-22T11:18:46.883Z,65
2023-02-22T11:19:46.849Z,65
2023-02-22T11:20:46.876Z,65
2023-02-22T11:21:46.842Z,60
2023-02-22T11:22:49.929Z,60
2023-02-22T11:23:52.293Z,45
2023-02-22T11:24:57.660Z,35
2023-02-22T11:25:49.721Z,40
2023-02-22T11:26:46.883Z,45
2023-02-22T11:27:46.860Z,50
2023-02-22T11:28:49.811Z,50
2023-02-22T11:29:46.991Z,50
2023-02-22T11:30:47.701Z,50
2023-02-22T11:31:47.586Z,45
2023-02-22T11:32:46.888Z,45
2023-02-22T11:33:48.457Z,50
2023-02-22T11:34:47.487Z,50
2023-02-22T11:35:46.865Z,50
2023-02-22T11:36:47.008Z,50
2023-02-22T11:37:46.864Z,50
2023-02-22T11:38:46.929Z,50
2023-02-22T11:39:49.958Z,50
2023-02-22T11:40:46.879Z,50
2023-02-22T11:41:46.950Z,50
2023-02-22T11:42:46.926Z,45
2023-02-22T11:43:46.933Z,40
2023-02-22T11:44:50.053Z,40
2023-02-22T11:46:06.801Z,45
2023-02-22T11:46:47.175Z,40
2023-02-22T11:47:46.927Z,40
2023-02-22T11:48:46.928Z,40
2023-02-22T11:49:46.888Z,45
2023-02-22T11:50:49.713Z,50
2023-02-22T11:51:46.885Z,45
2023-02-22T11:52:46.921Z,40
2023-02-22T11:53:46.926Z,40
2023-02-22T11:54:46.969Z,40
2023-02-22T11:55:53.141Z,45
2023-02-22T11:56:48.954Z,50
2023-02-22T11:57:46.929Z,55
2023-02-22T11:58:46.933Z,40
2023-02-22T11:59:46.986Z,35
2023-02-22T12:00:47.058Z,30
2023-02-22T12:01:49.711Z,25
2023-02-22T12:03:03.410Z,35
2023-02-22T12:03:47.596Z,45
2023-02-22T12:04:48.000Z,55
2023-02-22T12:05:46.916Z,55
2023-02-22T12:06:49.723Z,45
2023-02-22T12:07:46.924Z,40
2023-02-22T12:08:46.967Z,30
2023-02-22T12:09:46.900Z,45
2023-02-22T12:10:47.162Z,50
2023-02-22T12:11:47.007Z,45
2023-02-22T12:12:49.823Z,45
2023-02-22T12:13:46.970Z,40
2023-02-22T12:14:47.036Z,40
2023-02-22T12:15:47.396Z,35
2023-02-22T12:16:47.027Z,30
2023-02-22T12:18:06.039Z,30
2023-02-22T12:18:47.039Z,40
2023-02-22T12:19:46.937Z,40
2023-02-22T12:20:47.002Z,45
2023-02-22T12:21:46.984Z,40
2023-02-22T12:22:47.049Z,40
2023-02-22T12:23:47.016Z,40
2023-02-22T12:24:47.013Z,40
2023-02-22T12:25:46.994Z,40
2023-02-22T12:26:47.019Z,40
2023-02-22T12:27:47.116Z,40
2023-02-22T12:28:50.155Z,40
2023-02-22T12:29:46.992Z,35
2023-02-22T12:30:47.631Z,35
2023-02-22T12:31:47.767Z,30
2023-02-22T12:32:47.214Z,30
2023-02-22T12:33:50.201Z,25
2023-02-22T12:34:47.444Z,25
2023-02-22T12:35:46.994Z,25
2023-02-22T12:36:47.108Z,20
2023-02-22T12:37:47.083Z,20
2023-02-22T12:38:47.174Z,20
2023-02-22T12:40:03.111Z,20
2023-02-22T12:40:47.010Z,20
2023-02-22T12:41:47.024Z,20
2023-02-22T12:42:47.038Z,20
2023-02-22T12:43:47.240Z,20
2023-02-22T12:44:50.136Z,20
2023-02-22T12:45:47.035Z,20
2023-02-22T12:46:47.494Z,20
2023-02-22T12:47:47.046Z,20
2023-02-22T12:48:47.019Z,20
2023-02-22T12:49:47.076Z,20
2023-02-22T12:50:47.028Z,20
2023-02-22T12:51:47.036Z,20
2023-02-22T12:52:47.047Z,20
2023-02-22T12:53:47.010Z,25
2023-02-22T12:54:47.129Z,30
2023-02-22T12:55:49.858Z,30
2023-02-22T12:56:47.002Z,30
2023-02-22T12:57:47.073Z,30
2023-02-22T12:58:47.143Z,30
2023-02-22T12:59:47.104Z,30
2023-02-22T13:00:49.834Z,30
2023-02-22T13:01:47.401Z,30
2023-02-22T13:02:47.041Z,30
2023-02-22T13:03:47.049Z,35
2023-02-22T13:04:47.082Z,35
2023-02-22T13:05:47.151Z,35
2023-02-22T13:06:53.717Z,30
2023-02-22T13:07:47.064Z,20
2023-02-22T13:08:47.069Z,20
2023-02-22T13:09:47.136Z,20
2023-02-22T13:10:47.049Z,20
2023-02-22T13:11:49.878Z,20
2023-02-22T13:12:47.386Z,20
2023-02-22T13:13:47.110Z,25
2023-02-22T13:14:47.106Z,20
2023-02-22T13:15:47.699Z,25
2023-02-22T13:16:50.191Z,25
2023-02-22T13:17:47.067Z,25
2023-02-22T13:18:47.213Z,35
2023-02-22T13:19:47.101Z,35
2023-02-22T13:20:47.174Z,35
2023-02-22T13:21:47.205Z,35
2023-02-22T13:22:49.895Z,35
2023-02-22T13:23:47.128Z,25
2023-02-22T13:24:50.019Z,25
2023-02-22T13:25:47.118Z,30
2023-02-22T13:26:47.105Z,35
2023-02-22T13:27:49.844Z,35
2023-02-22T13:28:47.069Z,35
2023-02-22T13:29:47.191Z,35
2023-02-22T13:30:47.535Z,35
2023-02-22T13:31:50.784Z,35
2023-02-22T13:32:47.130Z,35
2023-02-22T13:33:49.955Z,35
2023-02-22T13:34:47.168Z,35
2023-02-22T13:35:47.185Z,35
2023-02-22T13:36:47.135Z,35
2023-02-22T13:37:47.142Z,35
2023-02-22T13:38:50.144Z,30
2023-02-22T13:39:47.159Z,30
2023-02-22T13:40:47.099Z,30
2023-02-22T13:41:47.091Z,30
2023-02-22T13:42:49.246Z,30
2023-02-22T13:43:47.119Z,30
2023-02-22T13:44:50.356Z,30
2023-02-22T13:45:47.184Z,30
2023-02-22T13:46:47.541Z,35
2023-02-22T13:47:47.254Z,30
2023-02-22T13:48:47.259Z,30
2023-02-22T13:49:50.285Z,30
2023-02-22T13:50:47.211Z,30
2023-02-22T13:51:47.115Z,30
2023-02-22T13:52:47.210Z,30
2023-02-22T13:53:47.146Z,20
2023-02-22T13:54:47.178Z,20
2023-02-22T13:55:50.113Z,25
2023-02-22T13:56:47.115Z,30
2023-02-22T13:57:47.179Z,25
2023-02-22T13:58:47.108Z,30
2023-02-22T13:59:47.171Z,35
2023-02-22T14:00:50.285Z,35
2023-02-22T14:01:47.502Z,30
2023-02-22T14:02:47.151Z,30
2023-02-22T14:03:47.337Z,30
2023-02-22T14:04:47.295Z,35
2023-02-22T14:05:47.555Z,30
2023-02-22T14:06:50.056Z,30
2023-02-22T14:07:47.172Z,30
2023-02-22T14:08:48.915Z,25
2023-02-22T14:09:47.175Z,25
2023-02-22T14:10:47.140Z,25
2023-02-22T14:11:49.945Z,30
2023-02-22T14:12:47.183Z,30
2023-02-22T14:13:47.321Z,30
2023-02-22T14:14:47.175Z,30
2023-02-22T14:15:49.787Z,30
2023-02-22T14:16:47.626Z,30
2023-02-22T14:17:50.170Z,30
2023-02-22T14:18:47.230Z,30
2023-02-22T14:19:47.354Z,25
2023-02-22T14:20:47.837Z,25
2023-02-22T14:21:47.255Z,25
2023-02-22T14:22:53.127Z,20
2023-02-22T14:23:47.318Z,20
2023-02-22T14:24:47.357Z,20
2023-02-22T14:25:47.233Z,20
2023-02-22T14:26:47.328Z,20
2023-02-22T14:27:47.189Z,20
2023-02-22T14:28:50.468Z,20
2023-02-22T14:29:47.225Z,20
2023-02-22T14:30:47.560Z,15